Newmarket, New Hampshire
Current Conditions -  °F | °C
As of 4:58 PM on Friday 24 Oct 2014 (Local Time) from KPSM Reporting Station
Overcast Overcast  
Wind Chill: 46°   Ceiling: 1600
Heat Index: 50°   Visibility: 10mi
Dew Point: 47°   Wind: 9mph
Humidity: 89%   Direction: 280°W
Pressure: 29.67"   Gusts: NA
Location:  43.08°N, 70.94°W
Report Text: KPSM 242058Z 28008KT 10SM FEW010 OVC016 10/08 A2967 RMK AO2A DZB2026E2041 SLP051 P0000 60000 T00990082 53002
Loading
Personal Weather Stations






























Interactive Weather Map
Tropical Storm Tracking
New forecast layout! Learn more

10-Day Weather Forecast

Advertisements
Track Severe Weather on mobile